sensor_id;sensor_type;location;lat;lon;timestamp;temperature;humidity
75899;DHT22;64576;50.460;4.866;2023-04-01T00:00:28;8.21;95.92
75899;DHT22;64576;50.460;4.866;2023-04-01T00:02:54;8.24;95.68
75899;DHT22;64576;50.460;4.866;2023-04-01T00:05:19;8.20;96.01
75899;DHT22;64576;50.460;4.866;2023-04-01T00:07:45;8.20;96.13
75899;DHT22;64576;50.460;4.866;2023-04-01T00:10:11;8.23;96.09
75899;DHT22;64576;50.460;4.866;2023-04-01T00:12:38;8.24;95.72
75899;DHT22;64576;50.460;4.866;2023-04-01T00:15:07;8.23;95.85
75899;DHT22;64576;50.460;4.866;2023-04-01T00:17:33;8.24;96.08
75899;DHT22;64576;50.460;4.866;2023-04-01T00:19:59;8.23;96.17
75899;DHT22;64576;50.460;4.866;2023-04-01T00:22:24;8.20;96.43
75899;DHT22;64576;50.460;4.866;2023-04-01T00:24:51;8.21;96.32
75899;DHT22;64576;50.460;4.866;2023-04-01T00:27:16;8.20;96.27
75899;DHT22;64576;50.460;4.866;2023-04-01T00:29:43;8.20;96.45
75899;DHT22;64576;50.460;4.866;2023-04-01T00:32:09;8.21;96.22
75899;DHT22;64576;50.460;4.866;2023-04-01T00:34:34;8.21;96.46
75899;DHT22;64576;50.460;4.866;2023-04-01T00:36:59;8.17;96.58
75899;DHT22;64576;50.460;4.866;2023-04-01T00:39:25;8.20;96.61
75899;DHT22;64576;50.460;4.866;2023-04-01T00:41:53;8.18;96.40
75899;DHT22;64576;50.460;4.866;2023-04-01T00:44:20;8.17;96.73
75899;DHT22;64576;50.460;4.866;2023-04-01T00:46:46;8.16;96.57
75899;DHT22;64576;50.460;4.866;2023-04-01T00:49:12;8.20;96.01
75899;DHT22;64576;50.460;4.866;2023-04-01T00:51:38;8.21;96.12
75899;DHT22;64576;50.460;4.866;2023-04-01T00:54:06;8.20;96.01
75899;DHT22;64576;50.460;4.866;2023-04-01T00:56:35;8.20;96.03
75899;DHT22;64576;50.460;4.866;2023-04-01T00:59:05;8.20;96.13
75899;DHT22;64576;50.460;4.866;2023-04-01T01:01:34;8.16;96.32
75899;DHT22;64576;50.460;4.866;2023-04-01T01:04:00;8.18;96.22
75899;DHT22;64576;50.460;4.866;2023-04-01T01:06:44;8.17;96.15
75899;DHT22;64576;50.460;4.866;2023-04-01T01:09:30;8.20;95.89
75899;DHT22;64576;50.460;4.866;2023-04-01T01:12:11;8.20;95.86
75899;DHT22;64576;50.460;4.866;2023-04-01T01:17:40;8.17;95.75
75899;DHT22;64576;50.460;4.866;2023-04-01T01:31:37;8.17;96.13
75899;DHT22;64576;50.460;4.866;2023-04-01T01:36:42;8.14;96.61
75899;DHT22;64576;50.460;4.866;2023-04-01T01:39:12;8.17;96.27
75899;DHT22;64576;50.460;4.866;2023-04-01T01:41:39;8.14;96.27
75899;DHT22;64576;50.460;4.866;2023-04-01T01:44:11;8.18;96.24
75899;DHT22;64576;50.460;4.866;2023-04-01T01:46:38;8.17;96.14
75899;DHT22;64576;50.460;4.866;2023-04-01T01:49:05;8.16;96.42
75899;DHT22;64576;50.460;4.866;2023-04-01T01:51:32;8.16;96.05
75899;DHT22;64576;50.460;4.866;2023-04-01T01:53:57;8.21;95.83
75899;DHT22;64576;50.460;4.866;2023-04-01T01:56:25;8.17;96.12
75899;DHT22;64576;50.460;4.866;2023-04-01T01:58:56;8.14;95.99
75899;DHT22;64576;50.460;4.866;2023-04-01T02:01:29;8.14;96.14
75899;DHT22;64576;50.460;4.866;2023-04-01T02:03:56;8.10;96.44
75899;DHT22;64576;50.460;4.866;2023-04-01T02:06:25;8.08;96.80
75899;DHT22;64576;50.460;4.866;2023-04-01T02:08:55;8.11;96.40
75899;DHT22;64576;50.460;4.866;2023-04-01T02:11:29;8.08;96.58
75899;DHT22;64576;50.460;4.866;2023-04-01T02:13:59;8.10;96.58
75899;DHT22;64576;50.460;4.866;2023-04-01T02:16:31;8.11;96.27
75899;DHT22;64576;50.460;4.866;2023-04-01T02:18:58;8.11;96.52
75899;DHT22;64576;50.460;4.866;2023-04-01T02:21:28;8.13;96.60
75899;DHT22;64576;50.460;4.866;2023-04-01T02:23:56;8.11;96.60
75899;DHT22;64576;50.460;4.866;2023-04-01T02:26:24;8.14;96.74
75899;DHT22;64576;50.460;4.866;2023-04-01T02:28:51;8.16;96.75
75899;DHT22;64576;50.460;4.866;2023-04-01T02:31:18;8.13;96.93
75899;DHT22;64576;50.460;4.866;2023-04-01T02:33:44;8.14;96.90
75899;DHT22;64576;50.460;4.866;2023-04-01T02:36:14;8.17;97.06
75899;DHT22;64576;50.460;4.866;2023-04-01T02:38:40;8.17;97.27
75899;DHT22;64576;50.460;4.866;2023-04-01T02:41:05;8.24;96.96
75899;DHT22;64576;50.460;4.866;2023-04-01T02:43:31;8.27;96.71
75899;DHT22;64576;50.460;4.866;2023-04-01T02:45:57;8.28;96.63
75899;DHT22;64576;50.460;4.866;2023-04-01T02:48:22;8.30;96.59
75899;DHT22;64576;50.460;4.866;2023-04-01T02:50:48;8.34;96.57
75899;DHT22;64576;50.460;4.866;2023-04-01T02:53:13;8.27;96.98
75899;DHT22;64576;50.460;4.866;2023-04-01T02:55:39;8.31;97.12
75899;DHT22;64576;50.460;4.866;2023-04-01T02:58:04;8.30;97.20
75899;DHT22;64576;50.460;4.866;2023-04-01T03:00:30;8.25;97.61
75899;DHT22;64576;50.460;4.866;2023-04-01T03:02:55;8.23;98.16
75899;DHT22;64576;50.460;4.866;2023-04-01T03:05:22;8.18;98.69
75899;DHT22;64576;50.460;4.866;2023-04-01T03:07:47;8.16;98.84
75899;DHT22;64576;50.460;4.866;2023-04-01T03:10:13;8.16;99.07
75899;DHT22;64576;50.460;4.866;2023-04-01T03:12:39;8.16;99.02
75899;DHT22;64576;50.460;4.866;2023-04-01T03:15:05;8.14;99.00
75899;DHT22;64576;50.460;4.866;2023-04-01T03:17:30;8.16;99.29
75899;DHT22;64576;50.460;4.866;2023-04-01T03:19:55;8.18;99.32
75899;DHT22;64576;50.460;4.866;2023-04-01T03:22:21;8.18;99.33
75899;DHT22;64576;50.460;4.866;2023-04-01T03:24:47;8.18;99.06
75899;DHT22;64576;50.460;4.866;2023-04-01T03:27:13;8.17;99.09
75899;DHT22;64576;50.460;4.866;2023-04-01T03:29:38;8.18;99.05
75899;DHT22;64576;50.460;4.866;2023-04-01T03:32:04;8.17;99.04
75899;DHT22;64576;50.460;4.866;2023-04-01T03:34:30;8.20;98.66
75899;DHT22;64576;50.460;4.866;2023-04-01T03:36:56;8.20;98.72
75899;DHT22;64576;50.460;4.866;2023-04-01T03:39:21;8.13;98.79
75899;DHT22;64576;50.460;4.866;2023-04-01T03:41:47;8.11;99.03
75899;DHT22;64576;50.460;4.866;2023-04-01T03:44:12;8.11;99.21
75899;DHT22;64576;50.460;4.866;2023-04-01T03:46:38;8.04;99.42
75899;DHT22;64576;50.460;4.866;2023-04-01T03:49:07;8.06;99.38
75899;DHT22;64576;50.460;4.866;2023-04-01T03:51:41;8.03;99.42
75899;DHT22;64576;50.460;4.866;2023-04-01T03:54:07;8.00;99.62
75899;DHT22;64576;50.460;4.866;2023-04-01T03:56:33;8.01;99.91
75899;DHT22;64576;50.460;4.866;2023-04-01T03:59:01;7.98;99.99
75899;DHT22;64576;50.460;4.866;2023-04-01T04:01:27;8.00;99.99
75899;DHT22;64576;50.460;4.866;2023-04-01T04:03:52;7.97;99.99
75899;DHT22;64576;50.460;4.866;2023-04-01T04:06:18;7.97;99.99
75899;DHT22;64576;50.460;4.866;2023-04-01T04:08:44;7.97;99.99
75899;DHT22;64576;50.460;4.866;2023-04-01T04:11:10;8.00;99.95
75899;DHT22;64576;50.460;4.866;2023-04-01T04:13:35;7.98;99.61
75899;DHT22;64576;50.460;4.866;2023-04-01T04:16:02;8.00;99.32
75899;DHT22;64576;50.460;4.866;2023-04-01T04:18:27;8.08;99.42
75899;DHT22;64576;50.460;4.866;2023-04-01T04:20:52;8.06;99.20
75899;DHT22;64576;50.460;4.866;2023-04-01T04:23:18;8.07;99.56
75899;DHT22;64576;50.460;4.866;2023-04-01T04:25:58;8.07;99.63
75899;DHT22;64576;50.460;4.866;2023-04-01T04:28:25;8.07;99.47
75899;DHT22;64576;50.460;4.866;2023-04-01T04:30:51;8.07;99.52
75899;DHT22;64576;50.460;4.866;2023-04-01T04:33:17;8.03;99.56
75899;DHT22;64576;50.460;4.866;2023-04-01T04:35:42;8.06;99.42
75899;DHT22;64576;50.460;4.866;2023-04-01T04:38:07;8.03;99.12
75899;DHT22;64576;50.460;4.866;2023-04-01T04:40:33;8.03;98.91
75899;DHT22;64576;50.460;4.866;2023-04-01T04:43:00;8.00;98.88
75899;DHT22;64576;50.460;4.866;2023-04-01T04:45:25;8.01;98.41
75899;DHT22;64576;50.460;4.866;2023-04-01T04:47:51;8.01;98.39
75899;DHT22;64576;50.460;4.866;2023-04-01T04:50:16;8.01;97.57
75899;DHT22;64576;50.460;4.866;2023-04-01T04:52:42;8.03;97.92
75899;DHT22;64576;50.460;4.866;2023-04-01T04:55:07;7.98;97.73
75899;DHT22;64576;50.460;4.866;2023-04-01T04:57:32;7.97;97.97
75899;DHT22;64576;50.460;4.866;2023-04-01T04:59:58;8.00;97.84
75899;DHT22;64576;50.460;4.866;2023-04-01T05:02:23;8.00;97.38
75899;DHT22;64576;50.460;4.866;2023-04-01T05:04:49;7.98;97.76
75899;DHT22;64576;50.460;4.866;2023-04-01T05:07:14;8.00;97.54
75899;DHT22;64576;50.460;4.866;2023-04-01T05:09:39;8.01;97.42
75899;DHT22;64576;50.460;4.866;2023-04-01T05:12:05;7.96;97.60
75899;DHT22;64576;50.460;4.866;2023-04-01T05:14:30;7.97;98.04
75899;DHT22;64576;50.460;4.866;2023-04-01T05:16:56;7.96;97.92
75899;DHT22;64576;50.460;4.866;2023-04-01T05:19:21;7.94;98.27
75899;DHT22;64576;50.460;4.866;2023-04-01T05:21:46;7.93;98.53
75899;DHT22;64576;50.460;4.866;2023-04-01T05:24:12;7.90;98.55
75899;DHT22;64576;50.460;4.866;2023-04-01T05:26:37;7.91;98.63
75899;DHT22;64576;50.460;4.866;2023-04-01T05:29:04;7.91;98.78
75899;DHT22;64576;50.460;4.866;2023-04-01T05:31:29;7.90;98.88
75899;DHT22;64576;50.460;4.866;2023-04-01T05:33:55;7.90;99.07
75899;DHT22;64576;50.460;4.866;2023-04-01T05:36:21;7.87;99.15
75899;DHT22;64576;50.460;4.866;2023-04-01T05:38:46;7.91;99.11
75899;DHT22;64576;50.460;4.866;2023-04-01T05:41:13;7.91;99.18
75899;DHT22;64576;50.460;4.866;2023-04-01T05:43:40;7.90;99.38
75899;DHT22;64576;50.460;4.866;2023-04-01T05:46:05;7.90;99.35
75899;DHT22;64576;50.460;4.866;2023-04-01T05:48:32;7.93;99.49
75899;DHT22;64576;50.460;4.866;2023-04-01T05:51:00;7.90;99.54
75899;DHT22;64576;50.460;4.866;2023-04-01T05:53:25;7.89;99.64
75899;DHT22;64576;50.460;4.866;2023-04-01T05:55:50;7.91;99.86
75899;DHT22;64576;50.460;4.866;2023-04-01T05:58:16;7.90;99.99
75899;DHT22;64576;50.460;4.866;2023-04-01T06:00:41;7.90;99.97
75899;DHT22;64576;50.460;4.866;2023-04-01T06:03:06;7.91;99.99
75899;DHT22;64576;50.460;4.866;2023-04-01T06:05:43;7.91;99.99
75899;DHT22;64576;50.460;4.866;2023-04-01T06:08:16;7.91;99.99
75899;DHT22;64576;50.460;4.866;2023-04-01T06:19:10;7.91;99.99
75899;DHT22;64576;50.460;4.866;2023-04-01T06:32:00;7.97;99.84
75899;DHT22;64576;50.460;4.866;2023-04-01T06:38:00;8.04;98.72
75899;DHT22;64576;50.460;4.866;2023-04-01T06:54:44;8.28;97.74
75899;DHT22;64576;50.460;4.866;2023-04-01T06:59:54;8.23;97.99
75899;DHT22;64576;50.460;4.866;2023-04-01T07:02:39;8.21;98.06
75899;DHT22;64576;50.460;4.866;2023-04-01T07:05:07;8.21;98.06
75899;DHT22;64576;50.460;4.866;2023-04-01T07:07:34;8.25;98.22
75899;DHT22;64576;50.460;4.866;2023-04-01T07:10:05;8.41;97.61
75899;DHT22;64576;50.460;4.866;2023-04-01T07:12:43;8.61;97.34
75899;DHT22;64576;50.460;4.866;2023-04-01T07:15:21;8.77;97.17
75899;DHT22;64576;50.460;4.866;2023-04-01T07:17:55;8.80;96.18
75899;DHT22;64576;50.460;4.866;2023-04-01T07:20:39;8.84;96.27
75899;DHT22;64576;50.460;4.866;2023-04-01T07:23:38;8.73;96.30
75899;DHT22;64576;50.460;4.866;2023-04-01T07:26:24;8.71;95.57
75899;DHT22;64576;50.460;4.866;2023-04-01T07:28:51;8.83;95.95
75899;DHT22;64576;50.460;4.866;2023-04-01T07:31:33;8.82;94.79
75899;DHT22;64576;50.460;4.866;2023-04-01T07:36:52;9.07;93.62
75899;DHT22;64576;50.460;4.866;2023-04-01T07:39:28;8.93;92.62
75899;DHT22;64576;50.460;4.866;2023-04-01T07:42:04;8.87;93.59
75899;DHT22;64576;50.460;4.866;2023-04-01T07:44:43;8.69;93.84
75899;DHT22;64576;50.460;4.866;2023-04-01T07:47:31;8.75;93.65
75899;DHT22;64576;50.460;4.866;2023-04-01T07:50:11;8.71;93.91
75899;DHT22;64576;50.460;4.866;2023-04-01T07:55:41;8.80;94.08
75899;DHT22;64576;50.460;4.866;2023-04-01T08:01:23;8.79;94.27
75899;DHT22;64576;50.460;4.866;2023-04-01T08:04:16;8.72;94.32
75899;DHT22;64576;50.460;4.866;2023-04-01T08:07:06;8.71;94.42
75899;DHT22;64576;50.460;4.866;2023-04-01T08:12:46;8.83;94.94
75899;DHT22;64576;50.460;4.866;2023-04-01T08:15:29;8.77;94.93
75899;DHT22;64576;50.460;4.866;2023-04-01T08:18:53;8.69;95.01
75899;DHT22;64576;50.460;4.866;2023-04-01T08:21:01;8.66;95.67
75899;DHT22;64576;50.460;4.866;2023-04-01T08:23:42;8.73;95.98
75899;DHT22;64576;50.460;4.866;2023-04-01T08:26:38;8.65;95.86
75899;DHT22;64576;50.460;4.866;2023-04-01T08:29:13;8.68;95.48
75899;DHT22;64576;50.460;4.866;2023-04-01T08:34:26;8.90;93.03
75899;DHT22;64576;50.460;4.866;2023-04-01T08:37:01;9.03;92.81
75899;DHT22;64576;50.460;4.866;2023-04-01T08:39:38;8.99;92.97
75899;DHT22;64576;50.460;4.866;2023-04-01T08:45:18;8.86;93.26
75899;DHT22;64576;50.460;4.866;2023-04-01T08:53:24;8.68;93.50
75899;DHT22;64576;50.460;4.866;2023-04-01T08:56:17;8.69;93.31
75899;DHT22;64576;50.460;4.866;2023-04-01T09:03:58;8.71;94.37
75899;DHT22;64576;50.460;4.866;2023-04-01T09:06:35;8.65;95.45
75899;DHT22;64576;50.460;4.866;2023-04-01T09:14:53;8.87;95.42
75899;DHT22;64576;50.460;4.866;2023-04-01T09:17:49;8.93;95.26
75899;DHT22;64576;50.460;4.866;2023-04-01T09:23:40;8.82;94.21
75899;DHT22;64576;50.460;4.866;2023-04-01T09:29:13;8.79;94.33
75899;DHT22;64576;50.460;4.866;2023-04-01T09:37:13;9.11;93.55
75899;DHT22;64576;50.460;4.866;2023-04-01T09:47:43;9.31;92.46
75899;DHT22;64576;50.460;4.866;2023-04-01T09:53:17;9.72;90.82
75899;DHT22;64576;50.460;4.866;2023-04-01T10:24:04;9.83;89.52
75899;DHT22;64576;50.460;4.866;2023-04-01T10:26:43;9.99;90.26
75899;DHT22;64576;50.460;4.866;2023-04-01T10:29:34;9.79;90.18
75899;DHT22;64576;50.460;4.866;2023-04-01T10:37:43;9.23;91.58
75899;DHT22;64576;50.460;4.866;2023-04-01T10:53:30;10.02;89.12
75899;DHT22;64576;50.460;4.866;2023-04-01T11:04:38;9.63;91.99
75899;DHT22;64576;50.460;4.866;2023-04-01T11:13:39;10.06;89.96
75899;DHT22;64576;50.460;4.866;2023-04-01T11:19:54;9.55;91.09
75899;DHT22;64576;50.460;4.866;2023-04-01T11:22:41;9.75;90.86
75899;DHT22;64576;50.460;4.866;2023-04-01T11:28:22;9.94;90.68
75899;DHT22;64576;50.460;4.866;2023-04-01T11:42:00;9.99;88.10
75899;DHT22;64576;50.460;4.866;2023-04-01T11:44:29;10.48;86.80
75899;DHT22;64576;50.460;4.866;2023-04-01T11:47:10;11.02;86.41
75899;DHT22;64576;50.460;4.866;2023-04-01T12:04:23;9.86;88.65
75899;DHT22;64576;50.460;4.866;2023-04-01T12:14:54;10.59;86.13
75899;DHT22;64576;50.460;4.866;2023-04-01T12:20:49;10.16;87.70
75899;DHT22;64576;50.460;4.866;2023-04-01T12:23:41;10.23;87.82
75899;DHT22;64576;50.460;4.866;2023-04-01T12:32:09;11.22;84.09
75899;DHT22;64576;50.460;4.866;2023-04-01T12:34:50;11.28;84.38
75899;DHT22;64576;50.460;4.866;2023-04-01T12:37:33;10.89;84.31
75899;DHT22;64576;50.460;4.866;2023-04-01T12:40:31;10.92;86.03
75899;DHT22;64576;50.460;4.866;2023-04-01T12:57:25;10.54;86.27
75899;DHT22;64576;50.460;4.866;2023-04-01T12:59:58;10.65;85.46
75899;DHT22;64576;50.460;4.866;2023-04-01T13:07:40;11.62;83.58
75899;DHT22;64576;50.460;4.866;2023-04-01T13:15:50;11.16;82.43
75899;DHT22;64576;50.460;4.866;2023-04-01T13:21:36;10.83;84.13
75899;DHT22;64576;50.460;4.866;2023-04-01T13:29:25;10.18;88.00
75899;DHT22;64576;50.460;4.866;2023-04-01T13:32:05;10.44;86.96
75899;DHT22;64576;50.460;4.866;2023-04-01T13:37:46;10.61;86.86
75899;DHT22;64576;50.460;4.866;2023-04-01T13:40:47;10.45;86.79
75899;DHT22;64576;50.460;4.866;2023-04-01T13:43:37;10.57;86.26
75899;DHT22;64576;50.460;4.866;2023-04-01T13:46:33;10.57;86.26
75899;DHT22;64576;50.460;4.866;2023-04-01T13:52:13;10.99;84.32
75899;DHT22;64576;50.460;4.866;2023-04-01T14:03:25;9.87;90.09
75899;DHT22;64576;50.460;4.866;2023-04-01T14:17:55;10.00;87.38
75899;DHT22;64576;50.460;4.866;2023-04-01T14:32:06;9.68;87.98
75899;DHT22;64576;50.460;4.866;2023-04-01T14:49:43;9.58;87.19
75899;DHT22;64576;50.460;4.866;2023-04-01T14:52:27;9.44;87.61
75899;DHT22;64576;50.460;4.866;2023-04-01T14:54:56;9.59;87.80
75899;DHT22;64576;50.460;4.866;2023-04-01T14:57:34;9.41;87.12
75899;DHT22;64576;50.460;4.866;2023-04-01T15:00:16;9.31;87.85
75899;DHT22;64576;50.460;4.866;2023-04-01T15:02:59;9.37;88.86
75899;DHT22;64576;50.460;4.866;2023-04-01T15:08:18;9.03;90.86
75899;DHT22;64576;50.460;4.866;2023-04-01T15:11:12;8.99;91.28
75899;DHT22;64576;50.460;4.866;2023-04-01T15:13:57;8.86;92.58
75899;DHT22;64576;50.460;4.866;2023-04-01T15:16:46;8.75;93.43
75899;DHT22;64576;50.460;4.866;2023-04-01T15:19:41;8.71;94.29
75899;DHT22;64576;50.460;4.866;2023-04-01T15:30:32;8.99;92.02
75899;DHT22;64576;50.460;4.866;2023-04-01T15:44:52;8.68;93.13
75899;DHT22;64576;50.460;4.866;2023-04-01T15:50:00;8.59;94.29
75899;DHT22;64576;50.460;4.866;2023-04-01T15:52:49;8.48;93.96
75899;DHT22;64576;50.460;4.866;2023-04-01T16:21:14;8.31;94.86
75899;DHT22;64576;50.460;4.866;2023-04-01T16:29:49;8.11;95.44
75899;DHT22;64576;50.460;4.866;2023-04-01T16:38:31;7.91;96.28
75899;DHT22;64576;50.460;4.866;2023-04-01T16:41:16;7.87;96.06
75899;DHT22;64576;50.460;4.866;2023-04-01T16:43:43;7.85;95.64
75899;DHT22;64576;50.460;4.866;2023-04-01T16:54:27;7.93;96.44
75899;DHT22;64576;50.460;4.866;2023-04-01T16:59:46;7.96;96.32
75899;DHT22;64576;50.460;4.866;2023-04-01T17:02:17;7.90;95.67
75899;DHT22;64576;50.460;4.866;2023-04-01T17:04:58;7.82;95.67
75899;DHT22;64576;50.460;4.866;2023-04-01T17:18:48;7.80;96.18
75899;DHT22;64576;50.460;4.866;2023-04-01T17:21:36;7.69;95.28
75899;DHT22;64576;50.460;4.866;2023-04-01T17:27:16;7.59;95.26
75899;DHT22;64576;50.460;4.866;2023-04-01T17:29:57;7.55;95.39
75899;DHT22;64576;50.460;4.866;2023-04-01T17:35:27;7.49;96.33
75899;DHT22;64576;50.460;4.866;2023-04-01T17:40:36;7.42;96.82
75899;DHT22;64576;50.460;4.866;2023-04-01T17:43:30;7.42;97.21
75899;DHT22;64576;50.460;4.866;2023-04-01T17:46:24;7.42;97.13
75899;DHT22;64576;50.460;4.866;2023-04-01T17:49:08;7.40;97.39
75899;DHT22;64576;50.460;4.866;2023-04-01T17:51:58;7.36;97.15
75899;DHT22;64576;50.460;4.866;2023-04-01T18:02:42;7.38;97.47
75899;DHT22;64576;50.460;4.866;2023-04-01T18:05:36;7.36;97.10
75899;DHT22;64576;50.460;4.866;2023-04-01T18:08:12;7.38;97.31
75899;DHT22;64576;50.460;4.866;2023-04-01T18:10:41;7.40;97.46
75899;DHT22;64576;50.460;4.866;2023-04-01T18:13:24;7.40;97.37
75899;DHT22;64576;50.460;4.866;2023-04-01T18:26:40;7.36;97.68
75899;DHT22;64576;50.460;4.866;2023-04-01T18:29:26;7.38;97.53
75899;DHT22;64576;50.460;4.866;2023-04-01T18:32:27;7.38;97.72
75899;DHT22;64576;50.460;4.866;2023-04-01T18:35:22;7.35;97.79
75899;DHT22;64576;50.460;4.866;2023-04-01T18:38:06;7.36;97.86
75899;DHT22;64576;50.460;4.866;2023-04-01T18:40:47;7.32;97.83
75899;DHT22;64576;50.460;4.866;2023-04-01T18:43:42;7.32;98.06
75899;DHT22;64576;50.460;4.866;2023-04-01T18:48:59;7.31;98.21
75899;DHT22;64576;50.460;4.866;2023-04-01T18:51:58;7.27;98.35
75899;DHT22;64576;50.460;4.866;2023-04-01T18:54:39;7.30;98.58
75899;DHT22;64576;50.460;4.866;2023-04-01T18:57:12;7.28;98.67
75899;DHT22;64576;50.460;4.866;2023-04-01T18:59:42;7.25;98.92
75899;DHT22;64576;50.460;4.866;2023-04-01T19:04:50;7.27;99.11
75899;DHT22;64576;50.460;4.866;2023-04-01T19:21:14;7.20;99.82
75899;DHT22;64576;50.460;4.866;2023-04-01T19:32:25;7.20;99.99
75899;DHT22;64576;50.460;4.866;2023-04-01T19:37:39;7.24;99.99
75899;DHT22;64576;50.460;4.866;2023-04-01T19:40:32;7.23;99.99
75899;DHT22;64576;50.460;4.866;2023-04-01T19:45:46;7.25;99.99
75899;DHT22;64576;50.460;4.866;2023-04-01T19:51:20;7.25;99.99
75899;DHT22;64576;50.460;4.866;2023-04-01T19:54:01;7.23;99.99
75899;DHT22;64576;50.460;4.866;2023-04-01T19:56:47;7.25;99.99
75899;DHT22;64576;50.460;4.866;2023-04-01T19:59:21;7.25;99.99
75899;DHT22;64576;50.460;4.866;2023-04-01T20:04:31;7.24;99.99
75899;DHT22;64576;50.460;4.866;2023-04-01T20:07:05;7.24;99.99
75899;DHT22;64576;50.460;4.866;2023-04-01T20:09:45;7.27;99.99
75899;DHT22;64576;50.460;4.866;2023-04-01T20:15:03;7.24;99.99
75899;DHT22;64576;50.460;4.866;2023-04-01T20:17:44;7.25;99.99
75899;DHT22;64576;50.460;4.866;2023-04-01T20:27:49;7.24;99.99
75899;DHT22;64576;50.460;4.866;2023-04-01T20:30:57;7.27;99.99
75899;DHT22;64576;50.460;4.866;2023-04-01T20:44:41;7.25;99.99
75899;DHT22;64576;50.460;4.866;2023-04-01T20:47:17;7.25;99.99
75899;DHT22;64576;50.460;4.866;2023-04-01T20:53:29;7.21;99.99
75899;DHT22;64576;50.460;4.866;2023-04-01T20:56:12;7.20;99.99
75899;DHT22;64576;50.460;4.866;2023-04-01T20:58:57;7.23;99.99
75899;DHT22;64576;50.460;4.866;2023-04-01T21:01:40;7.20;99.99
75899;DHT22;64576;50.460;4.866;2023-04-01T21:10:11;7.18;99.99
75899;DHT22;64576;50.460;4.866;2023-04-01T21:12:54;7.18;99.99
75899;DHT22;64576;50.460;4.866;2023-04-01T21:18:29;7.20;99.99
75899;DHT22;64576;50.460;4.866;2023-04-01T21:21:39;7.21;99.99
75899;DHT22;64576;50.460;4.866;2023-04-01T21:24:39;7.20;99.99
75899;DHT22;64576;50.460;4.866;2023-04-01T21:30:29;7.20;99.99
75899;DHT22;64576;50.460;4.866;2023-04-01T21:41:28;7.18;99.99
75899;DHT22;64576;50.460;4.866;2023-04-01T21:55:17;7.24;99.99
75899;DHT22;64576;50.460;4.866;2023-04-01T22:01:16;7.23;99.99
75899;DHT22;64576;50.460;4.866;2023-04-01T22:06:53;7.21;99.99
75899;DHT22;64576;50.460;4.866;2023-04-01T22:09:29;7.24;99.99
75899;DHT22;64576;50.460;4.866;2023-04-01T22:12:04;7.24;99.99
75899;DHT22;64576;50.460;4.866;2023-04-01T22:17:19;7.25;99.99
75899;DHT22;64576;50.460;4.866;2023-04-01T22:20:03;7.28;99.99
75899;DHT22;64576;50.460;4.866;2023-04-01T22:26:23;7.30;99.99
75899;DHT22;64576;50.460;4.866;2023-04-01T22:31:00;7.34;99.99
75899;DHT22;64576;50.460;4.866;2023-04-01T22:39:02;7.34;99.99
75899;DHT22;64576;50.460;4.866;2023-04-01T22:42:13;7.35;99.99
75899;DHT22;64576;50.460;4.866;2023-04-01T22:50:19;7.40;99.99
75899;DHT22;64576;50.460;4.866;2023-04-01T22:52:48;7.38;99.99
75899;DHT22;64576;50.460;4.866;2023-04-01T22:55:21;7.40;99.99
75899;DHT22;64576;50.460;4.866;2023-04-01T22:58:03;7.42;99.99
75899;DHT22;64576;50.460;4.866;2023-04-01T23:00:45;7.44;99.99
75899;DHT22;64576;50.460;4.866;2023-04-01T23:03:20;7.44;99.99
75899;DHT22;64576;50.460;4.866;2023-04-01T23:05:54;7.48;99.99
75899;DHT22;64576;50.460;4.866;2023-04-01T23:08:50;7.48;99.99
75899;DHT22;64576;50.460;4.866;2023-04-01T23:22:33;7.54;99.99
75899;DHT22;64576;50.460;4.866;2023-04-01T23:28:05;7.58;99.99
75899;DHT22;64576;50.460;4.866;2023-04-01T23:33:31;7.63;99.99
75899;DHT22;64576;50.460;4.866;2023-04-01T23:36:12;7.65;99.99
75899;DHT22;64576;50.460;4.866;2023-04-01T23:38:40;7.68;99.99
75899;DHT22;64576;50.460;4.866;2023-04-01T23:41:09;7.69;99.99
75899;DHT22;64576;50.460;4.866;2023-04-01T23:43:43;7.76;99.99
75899;DHT22;64576;50.460;4.866;2023-04-01T23:46:11;7.76;99.99
75899;DHT22;64576;50.460;4.866;2023-04-01T23:48:43;7.78;99.99
75899;DHT22;64576;50.460;4.866;2023-04-01T23:51:35;7.80;99.99
75899;DHT22;64576;50.460;4.866;2023-04-01T23:54:04;7.82;99.99
75899;DHT22;64576;50.460;4.866;2023-04-01T23:56:43;7.75;99.99
75899;DHT22;64576;50.460;4.866;2023-04-01T23:59:32;7.73;99.99
